Time;durP1;ratioP1;P1;durP2;ratioP2;P2;SDS_P1;SDS_P2;PMS_P1;PMS_P2;Temp;Humidity;BMP_temperature;BMP_pressure;BME280_temperature;BME280_humidity;BME280_pressure;Samples;Min_cycle;Max_cycle;Signal;HPM_P1;HPM_P2
2022/10/06 00:00:24;;;;;;;2.85;1.58;;;;;;;9.27;95.56;99541.03;5067880;28;20046;-46
2022/10/06 00:02:50;;;;;;;2.92;1.70;;;;;;;9.27;95.12;99541.03;5069926;28;20044;-48
2022/10/06 00:05:16;;;;;;;3.15;1.67;;;;;;;9.18;94.84;99533.56;5065888;28;20047;-47
2022/10/06 00:07:43;;;;;;;3.53;1.80;;;;;;;9.09;95.09;99515.69;5068111;28;20047;-47
2022/10/06 00:10:09;;;;;;;3.00;1.60;;;;;;;9.27;95.24;99531.53;5068349;28;20052;-48
2022/10/06 00:12:45;;;;;;;1.92;1.45;;;;;;;9.12;94.77;99505.22;5068314;28;20466;-46
2022/10/06 00:15:12;;;;;;;3.05;1.45;;;;;;;9.31;94.52;99537.50;5047563;28;20123;-46
2022/10/06 00:17:38;;;;;;;3.83;1.90;;;;;;;9.35;94.55;99526.97;5033695;28;20059;-49
2022/10/06 00:20:08;;;;;;;2.97;2.03;;;;;;;9.36;94.59;99520.03;5066151;28;20416;-47
2022/10/06 00:22:42;;;;;;;2.38;1.80;;;;;;;9.37;94.33;99541.63;5050705;28;20507;-45
2022/10/06 00:25:10;;;;;;;3.08;1.90;;;;;;;9.32;94.69;99550.38;5067921;28;20499;-49
2022/10/06 00:27:39;;;;;;;2.13;1.60;;;;;;;9.38;94.30;99553.69;5067556;28;20515;-49
2022/10/06 00:30:11;;;;;;;3.85;1.58;;;;;;;9.18;94.41;99515.41;5067729;28;20534;-48
2022/10/06 00:32:38;;;;;;;3.58;1.70;;;;;;;9.27;94.17;99547.09;5067023;28;20082;-50
2022/10/06 00:35:08;;;;;;;3.20;1.65;;;;;;;9.36;93.93;99553.75;5076481;28;20052;-49
2022/10/06 00:37:36;;;;;;;3.58;1.63;;;;;;;9.42;94.09;99544.94;5067925;28;20119;-49
2022/10/06 00:40:08;;;;;;;2.20;1.50;;;;;;;9.37;93.76;99529.47;5066506;28;20040;-49
2022/10/06 00:42:48;;;;;;;4.82;1.42;;;;;;;9.24;93.55;99504.84;5067662;28;20036;-46
2022/10/06 00:45:15;;;;;;;4.70;1.67;;;;;;;9.40;92.66;99529.41;5050284;28;20047;-48
2022/10/06 00:47:45;;;;;;;3.03;1.73;;;;;;;9.40;93.35;99539.78;5067771;28;20051;-51
2022/10/06 00:50:16;;;;;;;3.58;2.22;;;;;;;9.20;92.46;99521.41;5069579;28;20047;-52
2022/10/06 00:52:42;;;;;;;2.58;1.95;;;;;;;9.09;93.16;99495.81;5067147;28;20029;-50
2022/10/06 00:55:08;;;;;;;4.55;2.00;;;;;;;9.28;92.59;99535.81;5045530;28;20051;-52
2022/10/06 00:57:38;;;;;;;3.55;2.17;;;;;;;9.26;93.24;99529.00;5067784;28;20047;-47
2022/10/06 01:00:06;;;;;;;3.92;2.00;;;;;;;8.96;92.74;99511.78;5067408;28;20048;-48
2022/10/06 01:02:45;;;;;;;2.70;2.05;;;;;;;9.14;93.57;99539.75;5067756;28;20044;-46
2022/10/06 01:05:18;;;;;;;2.85;1.80;;;;;;;9.22;93.54;99532.56;5064432;28;20024;-48
2022/10/06 01:07:44;;;;;;;3.33;2.33;;;;;;;9.04;93.33;99508.06;5069095;28;20097;-48
2022/10/06 01:10:10;;;;;;;3.35;2.00;;;;;;;9.31;93.64;99546.13;5067471;28;20045;-49
2022/10/06 01:12:36;;;;;;;2.80;1.90;;;;;;;9.40;93.22;99538.94;5065840;28;20044;-49
2022/10/06 01:15:03;;;;;;;3.58;2.17;;;;;;;9.39;93.11;99537.22;5067660;28;20044;-47
2022/10/06 01:17:35;;;;;;;2.95;1.98;;;;;;;9.39;93.09;99538.06;5068724;28;20098;-51
2022/10/06 01:20:10;;;;;;;6.80;2.10;;;;;;;9.43;93.22;99537.06;5067891;28;20122;-50
2022/10/06 01:22:39;;;;;;;3.08;1.88;;;;;;;9.21;93.26;99492.81;5067546;28;20177;-46
2022/10/06 01:25:07;;;;;;;7.20;2.08;;;;;;;9.48;93.04;99536.94;5068162;28;20563;-49
2022/10/06 01:27:35;;;;;;;3.55;1.98;;;;;;;9.50;92.61;99529.94;5067855;28;20048;-48
2022/10/06 01:30:01;;;;;;;3.97;2.13;;;;;;;9.46;92.52;99526.63;5073015;28;20033;-52
2022/10/06 01:32:35;;;;;;;2.38;1.85;;;;;;;9.44;92.81;99533.59;5050262;28;20093;-48
2022/10/06 01:35:01;;;;;;;3.75;1.85;;;;;;;9.53;92.70;99533.28;5050348;28;20053;-49
2022/10/06 01:37:28;;;;;;;3.67;1.90;;;;;;;9.37;91.97;99503.53;5066106;28;20052;-51
2022/10/06 01:39:57;;;;;;;4.07;1.95;;;;;;;9.37;92.47;99534.66;5067655;28;20120;-47
2022/10/06 01:42:23;;;;;;;2.75;1.83;;;;;;;9.10;92.76;99502.69;5068027;28;20043;-50
2022/10/06 01:44:50;;;;;;;3.17;2.03;;;;;;;9.24;93.25;99535.97;5066214;28;20419;-48
2022/10/06 01:47:18;;;;;;;3.03;1.88;;;;;;;9.23;93.60;99534.25;5051608;28;20132;-48
2022/10/06 01:49:43;;;;;;;3.40;2.00;;;;;;;9.33;93.40;99540.88;5066887;28;20119;-48
2022/10/06 01:52:10;;;;;;;5.20;1.95;;;;;;;9.33;93.21;99533.94;5048494;28;20032;-47
2022/10/06 01:54:36;;;;;;;3.05;2.00;;;;;;;9.09;93.42;99492.34;5072612;28;20047;-46
2022/10/06 01:57:04;;;;;;;2.20;1.90;;;;;;;9.40;93.60;99541.53;5067165;28;20055;-45
2022/10/06 01:59:30;;;;;;;5.07;1.98;;;;;;;9.17;92.96;99505.91;5066626;28;20090;-46
2022/10/06 02:01:56;;;;;;;4.05;2.10;;;;;;;9.21;93.31;99503.19;5050158;28;20036;-47
2022/10/06 02:04:22;;;;;;;3.28;2.10;;;;;;;9.36;93.14;99545.97;5067823;28;20500;-47
2022/10/06 02:06:49;;;;;;;3.67;2.10;;;;;;;9.26;93.09;99536.78;5065781;28;20064;-47
2022/10/06 02:09:15;;;;;;;2.05;1.65;;;;;;;9.28;93.10;99542.75;5053507;28;20044;-45
2022/10/06 02:11:42;;;;;;;4.07;1.73;;;;;;;9.28;93.42;99537.56;5051540;28;20048;-48
2022/10/06 02:14:08;;;;;;;3.78;1.95;;;;;;;9.31;93.57;99535.75;5069994;28;20512;-46
2022/10/06 02:16:34;;;;;;;2.97;2.00;;;;;;;9.39;92.95;99537.22;5065794;28;20038;-48
2022/10/06 02:19:00;;;;;;;4.05;2.40;;;;;;;9.29;93.10;99527.16;5069353;28;20044;-47
2022/10/06 02:21:29;;;;;;;2.47;1.80;;;;;;;9.01;93.09;99479.63;5069606;28;20531;-47
2022/10/06 02:23:56;;;;;;;3.85;1.90;;;;;;;9.28;93.35;99525.44;5055242;28;20043;-50
2022/10/06 02:26:21;;;;;;;3.22;1.98;;;;;;;9.31;92.91;99525.38;5058089;28;20036;-48
2022/10/06 02:28:50;;;;;;;4.82;2.35;;;;;;;9.28;93.40;99527.19;5069233;28;20045;-49
2022/10/06 02:31:19;;;;;;;3.58;2.00;;;;;;;9.33;93.38;99531.34;5053148;28;20044;-51
2022/10/06 02:33:46;;;;;;;3.35;2.38;;;;;;;9.32;93.17;99534.81;5071021;28;20438;-49
2022/10/06 02:36:18;;;;;;;4.27;2.27;;;;;;;9.31;93.14;99535.75;5069867;28;20072;-47
2022/10/06 02:38:44;;;;;;;5.40;2.35;;;;;;;9.28;93.35;99541.00;5037249;28;20322;-50
2022/10/06 02:41:10;;;;;;;3.58;2.22;;;;;;;9.10;93.12;99491.47;5052846;28;20044;-46
2022/10/06 02:43:37;;;;;;;2.92;2.00;;;;;;;9.39;92.93;99556.25;5068944;28;20044;-47
2022/10/06 02:46:10;;;;;;;3.17;2.45;;;;;;;9.40;93.15;99551.91;5052326;28;20852;-47
2022/10/06 02:48:39;;;;;;;5.47;2.75;;;;;;;9.35;93.62;99555.50;5053576;28;20482;-48
2022/10/06 02:51:10;;;;;;;3.80;2.70;;;;;;;9.30;93.36;99557.38;5084647;28;20123;-50
2022/10/06 02:53:37;;;;;;;3.67;2.60;;;;;;;9.27;93.72;99562.66;5052330;28;20045;-49
2022/10/06 02:56:06;;;;;;;4.57;2.53;;;;;;;9.25;93.54;99555.84;5069509;28;20036;-46
2022/10/06 02:58:32;;;;;;;5.28;2.75;;;;;;;8.83;93.88;99496.59;5069936;28;20044;-48
2022/10/06 03:01:08;;;;;;;3.03;2.40;;;;;;;9.06;94.04;99526.16;5086518;28;20138;-47
2022/10/06 03:03:35;;;;;;;5.95;2.90;;;;;;;9.13;94.24;99528.53;5070001;28;20036;-49
2022/10/06 03:06:20;;;;;;;4.43;2.53;;;;;;;9.37;93.78;99563.22;5069469;28;20029;-47
2022/10/06 03:08:58;;;;;;;3.67;2.50;;;;;;;9.41;93.78;99566.56;5039416;28;20044;-49
2022/10/06 03:11:36;;;;;;;3.75;2.38;;;;;;;9.36;93.42;99569.31;5080244;28;20586;-47
2022/10/06 03:14:02;;;;;;;3.15;2.55;;;;;;;9.23;93.42;99561.06;5051828;28;20045;-46
2022/10/06 03:16:37;;;;;;;5.20;2.58;;;;;;;9.22;94.49;99563.69;5084826;28;20409;-49
2022/10/06 03:19:05;;;;;;;3.25;2.55;;;;;;;9.24;94.64;99554.97;5058051;28;20044;-46
2022/10/06 03:21:34;;;;;;;4.30;2.22;;;;;;;9.26;94.42;99562.72;5049632;28;20047;-47
2022/10/06 03:24:01;;;;;;;5.13;2.70;;;;;;;9.25;95.04;99568.81;5070564;28;20507;-46
2022/10/06 03:26:34;;;;;;;5.78;2.40;;;;;;;9.07;94.77;99526.13;5068920;28;20135;-48
2022/10/06 03:29:00;;;;;;;2.95;2.60;;;;;;;9.24;94.61;99560.16;5069438;28;20412;-48
2022/10/06 03:31:27;;;;;;;3.63;2.80;;;;;;;9.22;94.33;99558.50;5067143;28;20866;-47
2022/10/06 03:33:55;;;;;;;3.53;2.70;;;;;;;9.21;94.39;99552.47;5051971;28;20060;-49
2022/10/06 03:36:25;;;;;;;4.45;2.58;;;;;;;9.20;94.11;99537.81;5067815;28;20538;-49
2022/10/06 03:38:51;;;;;;;4.75;2.83;;;;;;;9.37;94.21;99557.19;5067903;28;20044;-46
2022/10/06 03:41:28;;;;;;;4.40;2.70;;;;;;;9.13;93.68;99536.31;5049997;28;20036;-51
2022/10/06 03:43:56;;;;;;;5.55;3.42;;;;;;;9.41;93.87;99569.19;5052799;28;20055;-49
2022/10/06 03:46:29;;;;;;;5.47;2.55;;;;;;;9.40;93.25;99568.31;5067086;28;20040;-46
2022/10/06 03:48:56;;;;;;;7.75;3.88;;;;;;;9.39;93.92;99569.22;5052041;28;20051;-45
2022/10/06 03:51:30;;;;;;;5.78;3.50;;;;;;;9.52;93.27;99569.69;5068071;28;20059;-48
2022/10/06 03:53:57;;;;;;;3.90;2.63;;;;;;;9.54;92.88;99575.66;5051309;28;20059;-46
2022/10/06 03:56:24;;;;;;;4.15;3.15;;;;;;;9.59;93.10;99568.56;5051641;28;20048;-46
2022/10/06 03:58:58;;;;;;;4.43;2.92;;;;;;;9.43;92.34;99531.88;5052325;28;20048;-47
2022/10/06 04:01:31;;;;;;;4.15;2.90;;;;;;;9.62;92.20;99571.94;5050719;28;20028;-50
2022/10/06 04:04:01;;;;;;;7.68;3.33;;;;;;;9.53;92.11;99558.38;5068292;28;20040;-45
2022/10/06 04:06:30;;;;;;;6.28;3.30;;;;;;;9.46;92.42;99546.53;5082416;28;20040;-49
2022/10/06 04:08:56;;;;;;;6.33;3.13;;;;;;;9.70;92.28;99571.69;5068023;28;20182;-45
2022/10/06 04:11:28;;;;;;;7.20;3.58;;;;;;;9.63;92.00;99567.59;5066786;28;20061;-51
2022/10/06 04:13:59;;;;;;;5.90;3.30;;;;;;;9.56;92.43;99572.13;5067418;28;20055;-49
2022/10/06 04:16:29;;;;;;;7.13;3.58;;;;;;;9.53;91.91;99563.56;5068049;28;20548;-49
2022/10/06 04:18:58;;;;;;;6.38;3.30;;;;;;;9.55;92.78;99562.66;5067187;28;20040;-49
2022/10/06 04:21:25;;;;;;;6.93;3.85;;;;;;;9.61;92.82;99569.38;5066288;28;20059;-50
2022/10/06 04:23:53;;;;;;;7.30;3.80;;;;;;;9.55;92.99;99562.66;5034078;28;20032;-47
2022/10/06 04:26:20;;;;;;;5.97;3.78;;;;;;;9.58;92.99;99569.47;5067854;28;20047;-47
2022/10/06 04:28:50;;;;;;;5.55;3.38;;;;;;;9.33;92.77;99505.41;5068313;28;20052;-48
2022/10/06 04:31:23;;;;;;;4.78;3.47;;;;;;;9.62;92.56;99581.47;5047947;28;20040;-48
2022/10/06 04:33:54;;;;;;;4.82;3.60;;;;;;;9.57;92.60;99578.19;5075619;28;20087;-48
2022/10/06 04:36:23;;;;;;;5.35;3.70;;;;;;;9.36;92.60;99566.72;5046919;28;20094;-50
2022/10/06 04:38:57;;;;;;;6.43;4.38;;;;;;;9.46;93.11;99575.91;5066774;28;20040;-48
2022/10/06 04:41:25;;;;;;;6.53;4.00;;;;;;;9.47;93.44;99589.75;5067345;28;20535;-51
2022/10/06 04:43:52;;;;;;;7.47;3.53;;;;;;;9.52;93.57;99593.91;5051424;28;20499;-50
2022/10/06 04:46:19;;;;;;;6.80;3.60;;;;;;;9.24;93.42;99541.16;5049411;28;20051;-49
2022/10/06 04:48:46;;;;;;;5.55;3.45;;;;;;;9.27;93.67;99556.63;5050655;28;20040;-47
2022/10/06 04:51:14;;;;;;;5.68;3.67;;;;;;;9.34;93.79;99556.38;5066426;28;20044;-48
2022/10/06 04:53:44;;;;;;;7.30;3.88;;;;;;;9.70;93.45;99600.22;5067422;28;20066;-50
2022/10/06 04:56:13;;;;;;;5.05;3.92;;;;;;;9.71;93.37;99594.16;5067816;28;20048;-53
2022/10/06 04:58:41;;;;;;;7.80;3.57;;;;;;;9.69;93.70;99591.59;5051486;28;20125;-47
2022/10/06 05:01:19;;;;;;;5.25;3.35;;;;;;;9.73;93.35;99587.16;5067892;28;20040;-48
2022/10/06 05:03:47;;;;;;;5.90;3.53;;;;;;;9.69;93.22;99590.75;5067587;28;20044;-48
2022/10/06 05:06:17;;;;;;;4.57;3.28;;;;;;;9.72;93.16;99586.31;5068722;28;20079;-49
2022/10/06 05:08:47;;;;;;;6.82;4.13;;;;;;;9.74;92.95;99586.25;5066874;28;20048;-47
2022/10/06 05:11:13;;;;;;;7.93;3.50;;;;;;;9.82;93.34;99586.00;5067771;28;20050;-51
2022/10/06 05:13:39;;;;;;;5.57;3.00;;;;;;;9.88;93.02;99588.41;5068758;28;20579;-49
2022/10/06 05:16:09;;;;;;;7.07;3.65;;;;;;;9.87;93.12;99587.56;5050600;28;20048;-47
2022/10/06 05:18:37;;;;;;;5.57;3.45;;;;;;;9.99;92.56;99591.50;5067442;28;20044;-49
2022/10/06 05:21:06;;;;;;;5.32;3.22;;;;;;;9.57;92.43;99534.91;5050800;28;20044;-51
2022/10/06 05:23:35;;;;;;;6.00;3.40;;;;;;;9.92;93.15;99587.41;5051055;28;20036;-49
2022/10/06 05:26:01;;;;;;;10.93;4.30;;;;;;;10.07;93.03;99592.94;5067206;28;20039;-47
2022/10/06 05:28:29;;;;;;;9.10;4.10;;;;;;;10.11;92.28;99589.31;5066052;28;20048;-47
2022/10/06 05:31:01;;;;;;;12.70;3.90;;;;;;;9.69;91.85;99536.22;5051152;28;20040;-48
2022/10/06 05:33:30;;;;;;;13.02;4.68;;;;;;;9.96;92.25;99592.44;5067491;28;20210;-49
2022/10/06 05:35:58;;;;;;;7.32;4.20;;;;;;;10.03;93.39;99593.09;5069465;28;20032;-48
2022/10/06 05:38:25;;;;;;;13.60;5.00;;;;;;;10.00;92.85;99598.38;5064593;28;20125;-46
2022/10/06 05:41:01;;;;;;;9.63;4.50;;;;;;;9.93;93.55;99600.34;5050900;28;20052;-48
2022/10/06 05:43:28;;;;;;;14.05;5.50;;;;;;;10.02;93.61;99600.03;5051019;28;20520;-49
2022/10/06 05:45:59;;;;;;;13.40;4.20;;;;;;;10.10;93.25;99600.59;5068953;28;20037;-48
2022/10/06 05:48:26;;;;;;;8.15;4.43;;;;;;;10.04;93.11;99590.44;5053736;28;20040;-50
2022/10/06 05:51:03;;;;;;;8.50;4.00;;;;;;;10.03;92.70;99590.50;5037194;28;20083;-47
2022/10/06 05:53:32;;;;;;;;;;;;;;;10.03;93.57;99595.69;5070030;28;20039;-49
2022/10/06 05:56:07;;;;;;;9.65;4.88;;;;;;;9.87;93.60;99565.94;5070556;28;19927;-49
2022/10/06 05:58:34;;;;;;;8.13;3.75;;;;;;;10.02;92.75;99575.81;5053043;28;20500;-50
2022/10/06 06:01:18;;;;;;;11.73;3.78;;;;;;;10.18;92.56;99600.41;5070967;28;20496;-53
2022/10/06 06:03:53;;;;;;;10.05;4.32;;;;;;;10.19;92.81;99607.28;5050577;28;20160;-48
2022/10/06 06:06:29;;;;;;;10.75;3.90;;;;;;;10.27;92.50;99607.88;5070503;28;20036;-49
2022/10/06 06:09:28;;;;;;;6.85;3.80;;;;;;;10.35;91.97;99605.03;5062394;28;20051;-51
2022/10/06 06:11:58;;;;;;;8.95;3.67;;;;;;;10.40;91.77;99605.72;5061720;28;20048;-51
2022/10/06 06:17:18;;;;;;;6.60;3.80;;;;;;;10.45;91.17;99603.78;5066124;28;20090;-53
2022/10/06 06:19:45;;;;;;;6.68;3.58;;;;;;;10.34;90.98;99582.53;5074167;28;20075;-52
2022/10/06 06:22:11;;;;;;;5.50;3.47;;;;;;;10.60;90.80;99603.25;5049256;28;20115;-52
2022/10/06 06:24:41;;;;;;;10.80;4.32;;;;;;;10.53;90.33;99605.22;5066012;28;20068;-54
2022/10/06 06:27:08;;;;;;;9.38;3.97;;;;;;;10.14;90.17;99554.63;5082270;28;20040;-53
2022/10/06 06:29:34;;;;;;;12.30;4.53;;;;;;;10.52;90.54;99610.47;5051968;28;20054;-50
2022/10/06 06:31:59;;;;;;;7.43;3.65;;;;;;;10.66;90.39;99605.63;5070012;28;20435;-52
2022/10/06 06:34:26;;;;;;;9.50;3.42;;;;;;;10.72;90.50;99613.22;5069735;28;20170;-48
2022/10/06 06:36:57;;;;;;;10.93;4.55;;;;;;;10.69;89.56;99608.13;5051450;28;20054;-47
2022/10/06 06:39:24;;;;;;;11.23;3.80;;;;;;;10.63;89.42;99609.19;5100671;28;20094;-51
2022/10/06 06:41:50;;;;;;;7.18;3.92;;;;;;;10.26;89.94;99567.19;5038005;28;20045;-48
2022/10/06 06:44:55;;;;;;;11.60;4.35;;;;;;;10.56;90.76;99609.47;5061312;28;20040;-50
2022/10/06 06:47:30;;;;;;;5.57;2.97;;;;;;;10.59;90.34;99609.34;5069428;28;20534;-48
2022/10/06 06:49:58;;;;;;;6.47;3.47;;;;;;;10.56;90.80;99602.53;5068875;28;20074;-52
2022/10/06 06:52:26;;;;;;;7.20;3.83;;;;;;;10.68;90.46;99605.59;5066318;28;20070;-47
2022/10/06 06:54:52;;;;;;;5.40;3.47;;;;;;;10.63;90.53;99601.38;5034768;28;20043;-48
2022/10/06 06:57:18;;;;;;;6.78;3.92;;;;;;;10.69;90.49;99599.47;5067939;28;20053;-49
2022/10/06 06:59:45;;;;;;;6.70;3.75;;;;;;;10.77;90.62;99592.25;5069228;28;20102;-46
2022/10/06 07:02:14;;;;;;;7.28;3.92;;;;;;;10.95;90.41;99595.00;5067626;28;20089;-50
2022/10/06 07:04:44;;;;;;;8.82;4.13;;;;;;;10.98;89.64;99570.66;5084495;28;20364;-51
2022/10/06 07:07:13;;;;;;;7.80;3.85;;;;;;;11.25;88.64;99602.56;5065874;28;20041;-46
2022/10/06 07:09:40;;;;;;;8.45;3.70;;;;;;;11.32;88.36;99597.06;5085677;28;20044;-50
2022/10/06 07:12:10;;;;;;;6.45;3.00;;;;;;;11.33;87.50;99605.72;5050882;28;20537;-49
2022/10/06 07:25:05;;;;;;;5.93;3.65;;;;;;;11.25;87.86;99605.19;5067589;28;20048;-48
2022/10/06 07:26:00;;;;;;;5.55;3.20;;;;;;;10.78;90.19;99607.78;5053165;28;20044;-49
2022/10/06 07:28:29;;;;;;;6.28;3.60;;;;;;;10.76;90.74;99599.19;5064798;28;20139;-54
2022/10/06 07:30:59;;;;;;;7.10;2.75;;;;;;;10.60;90.87;99562.50;5068073;28;20050;-48
2022/10/06 07:33:31;;;;;;;6.38;2.90;;;;;;;10.81;90.76;99576.47;5064628;28;20080;-51
2022/10/06 07:35:57;;;;;;;6.35;3.35;;;;;;;10.93;90.29;99580.38;5066864;28;20102;-54
2022/10/06 07:38:24;;;;;;;5.05;2.97;;;;;;;11.00;89.53;99584.41;5082956;28;20036;-51
2022/10/06 07:40:54;;;;;;;11.68;3.90;;;;;;;10.93;89.25;99565.63;5048684;28;20053;-51
2022/10/06 07:43:21;;;;;;;11.68;3.45;;;;;;;11.04;89.74;99592.06;5066112;28;20051;-50
2022/10/06 07:45:50;;;;;;;10.80;4.10;;;;;;;11.14;89.45;99584.78;5051471;28;20036;-53
2022/10/06 07:48:22;;;;;;;7.95;3.33;;;;;;;11.22;88.57;99590.50;5065423;28;20079;-54
2022/10/06 07:50:59;;;;;;;7.28;3.92;;;;;;;11.24;88.48;99583.50;5050302;28;20041;-51
2022/10/06 07:53:49;;;;;;;6.28;3.92;;;;;;;11.26;88.42;99583.44;5066571;28;20051;-48
2022/10/06 07:56:38;;;;;;;10.02;4.25;;;;;;;11.13;88.62;99577.88;5064120;28;20044;-52
2022/10/06 07:59:04;;;;;;;6.10;3.53;;;;;;;10.98;88.60;99560.25;5051777;28;20062;-55
2022/10/06 08:01:31;;;;;;;7.53;3.50;;;;;;;11.19;89.38;99582.00;5069824;28;20044;-53
2022/10/06 08:03:59;;;;;;;7.47;4.13;;;;;;;11.27;88.74;99588.59;5064423;28;20041;-47
2022/10/06 08:06:26;;;;;;;7.78;3.35;;;;;;;11.22;88.48;99577.50;5066370;28;20118;-48
2022/10/06 08:08:52;;;;;;;12.05;4.20;;;;;;;11.24;89.11;99583.50;5068618;28;20551;-47
2022/10/06 08:11:18;;;;;;;9.60;3.95;;;;;;;11.17;89.18;99576.84;5067317;28;20041;-54
2022/10/06 08:13:47;;;;;;;10.75;3.50;;;;;;;11.18;88.89;99581.13;5065605;28;20032;-45
2022/10/06 08:16:15;;;;;;;13.25;4.55;;;;;;;11.18;89.27;99580.28;5066255;28;20036;-46
2022/10/06 08:18:42;;;;;;;7.07;3.65;;;;;;;11.25;89.47;99587.78;5068320;28;20052;-49
2022/10/06 08:21:12;;;;;;;4.75;3.40;;;;;;;11.22;89.08;99580.09;5069051;28;20059;-50
2022/10/06 08:23:43;;;;;;;9.05;3.40;;;;;;;11.17;90.11;99571.63;5072222;28;20054;-47
2022/10/06 08:26:10;;;;;;;7.00;3.78;;;;;;;11.21;90.34;99586.22;5067223;28;20094;-49
2022/10/06 08:28:36;;;;;;;5.82;3.63;;;;;;;11.21;90.74;99582.75;5069396;28;20090;-45
2022/10/06 08:31:10;;;;;;;11.45;4.40;;;;;;;11.25;91.19;99574.78;5067493;28;20404;-47
2022/10/06 08:33:38;;;;;;;4.88;3.70;;;;;;;11.37;90.79;99579.50;5068000;28;20052;-46
2022/10/06 08:36:08;;;;;;;6.97;4.30;;;;;;;11.51;90.73;99578.13;5066758;28;20052;-49
2022/10/06 08:38:37;;;;;;;11.33;4.37;;;;;;;11.48;90.02;99584.28;5064716;28;20040;-46
2022/10/06 08:41:25;;;;;;;4.93;3.35;;;;;;;11.50;90.38;99585.09;5066269;28;20051;-48
2022/10/06 08:44:19;;;;;;;5.80;3.72;;;;;;;11.44;90.28;99591.38;5088513;28;20523;-51
2022/10/06 08:47:00;;;;;;;8.05;5.35;;;;;;;11.33;90.42;99590.09;5064928;28;20033;-49
2022/10/06 08:49:37;;;;;;;9.50;4.38;;;;;;;11.03;90.22;99564.38;5078783;28;20524;-50
2022/10/06 08:52:32;;;;;;;12.43;4.85;;;;;;;11.36;90.36;99598.63;5062381;28;20059;-52
2022/10/06 08:55:01;;;;;;;6.70;4.68;;;;;;;11.39;90.21;99600.28;5066934;28;20618;-49
2022/10/06 08:58:09;;;;;;;7.97;4.63;;;;;;;11.38;90.20;99596.81;5066385;28;20066;-50
2022/10/06 09:00:36;;;;;;;5.45;4.07;;;;;;;11.37;89.95;99600.34;5057029;28;20048;-52
2022/10/06 09:03:03;;;;;;;6.82;3.78;;;;;;;11.04;90.33;99549.59;5067267;28;20058;-50
2022/10/06 09:05:30;;;;;;;6.90;3.78;;;;;;;11.37;90.41;99592.53;5066886;28;20040;-45
2022/10/06 09:08:11;;;;;;;5.95;3.72;;;;;;;11.34;90.82;99597.00;5066888;28;22394;-48
2022/10/06 09:10:52;;;;;;;5.68;4.07;;;;;;;11.34;90.54;99604.81;5066925;28;20073;-45
2022/10/06 09:13:23;;;;;;;7.97;3.22;;;;;;;11.36;90.77;99598.63;5072272;28;20032;-54
2022/10/06 09:15:57;;;;;;;7.72;3.55;;;;;;;11.27;91.00;99593.78;5065124;28;20127;-48
2022/10/06 09:18:35;;;;;;;7.20;3.70;;;;;;;11.26;92.21;99588.63;5065877;28;20446;-50
2022/10/06 09:21:03;;;;;;;5.43;3.72;;;;;;;10.99;92.07;99541.13;5051287;28;20147;-54
2022/10/06 09:23:46;;;;;;;5.55;3.75;;;;;;;11.31;92.58;99581.50;5051815;28;20409;-49
2022/10/06 09:26:15;;;;;;;7.43;4.03;;;;;;;11.30;92.35;99580.69;5071567;28;20036;-52
2022/10/06 09:28:44;;;;;;;6.35;3.95;;;;;;;11.29;92.46;99578.13;5066106;28;20048;-49
2022/10/06 09:31:27;;;;;;;5.88;3.60;;;;;;;11.33;93.13;99580.53;5072323;28;20602;-52
2022/10/06 09:33:58;;;;;;;6.53;4.10;;;;;;;11.31;92.73;99576.28;5063944;28;20567;-50
2022/10/06 09:36:24;;;;;;;6.75;3.67;;;;;;;11.40;92.56;99582.00;5069367;28;20044;-48
2022/10/06 09:38:53;;;;;;;6.07;3.65;;;;;;;11.42;92.39;99574.97;5068779;28;20871;-50
2022/10/06 09:41:26;;;;;;;5.32;3.63;;;;;;;11.13;92.50;99541.44;5101227;28;20040;-51
2022/10/06 09:44:03;;;;;;;6.07;4.05;;;;;;;11.20;92.44;99552.47;5070637;28;20040;-53
2022/10/06 09:46:32;;;;;;;10.40;4.60;;;;;;;11.39;92.48;99579.47;5081055;28;20036;-53
2022/10/06 09:49:26;;;;;;;8.90;4.80;;;;;;;11.44;93.04;99583.56;5070021;28;20117;-50
2022/10/06 09:52:13;;;;;;;6.82;4.30;;;;;;;11.48;92.64;99563.47;5050194;28;20494;-51
2022/10/06 09:54:42;;;;;;;9.27;4.80;;;;;;;11.57;92.34;99578.72;5066458;28;20037;-51
2022/10/06 09:57:14;;;;;;;8.63;4.22;;;;;;;11.67;91.86;99580.03;5071748;28;20044;-52
2022/10/06 09:59:43;;;;;;;10.82;4.53;;;;;;;11.73;91.21;99578.97;5051140;28;20443;-50
2022/10/06 10:02:32;;;;;;;8.23;5.28;;;;;;;11.80;91.40;99578.69;5052158;28;20063;-51
2022/10/06 10:04:58;;;;;;;11.38;5.15;;;;;;;11.74;90.71;99570.25;5051474;28;20048;-52
2022/10/06 10:07:26;;;;;;;9.82;5.18;;;;;;;11.81;91.20;99574.31;5070869;28;20037;-54
2022/10/06 10:09:53;;;;;;;9.55;5.20;;;;;;;11.96;90.55;99580.66;5067995;28;20171;-56
2022/10/06 10:12:29;;;;;;;8.77;5.00;;;;;;;12.00;89.46;99579.59;5053757;28;20131;-55
2022/10/06 10:15:10;;;;;;;7.70;4.85;;;;;;;11.96;89.61;99572.81;5072662;28;20072;-48
2022/10/06 10:17:36;;;;;;;14.00;5.07;;;;;;;12.04;89.26;99571.59;5067531;28;20106;-48
2022/10/06 10:20:07;;;;;;;12.65;5.97;;;;;;;12.18;88.50;99571.03;5070869;28;20508;-47
2022/10/06 10:22:38;;;;;;;7.90;4.78;;;;;;;12.27;87.85;99570.63;5068366;28;20533;-51
2022/10/06 10:25:23;;;;;;;9.25;6.28;;;;;;;12.48;87.26;99561.88;5067688;28;20127;-47
2022/10/06 10:28:28;;;;;;;17.98;6.32;;;;;;;12.91;85.36;99555.56;5082321;28;20036;-52
2022/10/06 10:31:12;;;;;;;6.97;5.03;;;;;;;13.52;83.39;99561.41;5067907;28;20044;-51
2022/10/06 10:33:39;;;;;;;12.18;6.18;;;;;;;13.63;80.93;99568.72;5070616;28;20053;-53
2022/10/06 10:36:08;;;;;;;9.15;6.22;;;;;;;13.33;80.08;99565.81;5052657;28;20048;-48
2022/10/06 10:38:39;;;;;;;13.23;6.37;;;;;;;13.10;80.42;99552.94;5068945;28;20432;-48
2022/10/06 10:41:19;;;;;;;14.38;7.68;;;;;;;13.02;80.26;99534.22;5069151;28;20339;-46
2022/10/06 10:43:50;;;;;;;13.75;7.13;;;;;;;13.23;79.97;99572.38;5066677;28;20420;-49
2022/10/06 10:46:35;;;;;;;10.88;7.07;;;;;;;13.01;80.68;99546.41;5061623;28;20595;-45
2022/10/06 10:49:15;;;;;;;12.80;6.85;;;;;;;13.13;79.97;99576.34;5068693;28;20036;-48
2022/10/06 10:51:50;;;;;;;8.43;6.30;;;;;;;13.06;80.26;99574.91;5070464;28;20043;-46
2022/10/06 10:54:45;;;;;;;11.60;6.60;;;;;;;12.98;81.04;99582.25;5062296;28;20420;-48
2022/10/06 10:57:15;;;;;;;8.65;5.50;;;;;;;12.84;81.08;99579.41;5043205;28;20045;-49
2022/10/06 10:59:47;;;;;;;9.68;6.28;;;;;;;12.76;81.75;99576.31;5047985;28;20043;-49
2022/10/06 11:02:18;;;;;;;10.90;6.03;;;;;;;12.67;82.29;99578.38;5070576;28;20036;-47
2022/10/06 11:04:46;;;;;;;11.38;5.57;;;;;;;12.44;82.59;99552.50;5069644;28;20047;-52
2022/10/06 11:07:28;;;;;;;11.25;6.05;;;;;;;12.67;83.45;99587.97;5069664;28;20036;-49
2022/10/06 11:10:38;;;;;;;15.80;6.53;;;;;;;12.70;83.67;99580.03;5049894;28;20111;-47
2022/10/06 11:13:10;;;;;;;9.55;5.55;;;;;;;12.70;83.14;99580.88;5064029;28;20044;-49
2022/10/06 11:15:40;;;;;;;10.77;5.60;;;;;;;12.76;83.01;99576.31;5063985;28;20033;-50
2022/10/06 11:18:28;;;;;;;10.10;5.78;;;;;;;12.82;82.47;99578.63;5094532;27;20508;-53
2022/10/06 11:21:00;;;;;;;8.80;5.53;;;;;;;12.80;82.21;99578.69;5051705;28;20095;-45
2022/10/06 11:23:30;;;;;;;9.05;5.18;;;;;;;12.85;81.91;99578.47;5049164;28;20048;-48
2022/10/06 11:26:28;;;;;;;9.32;5.85;;;;;;;12.81;81.82;99588.22;5064896;28;20041;-50
2022/10/06 11:29:03;;;;;;;9.15;6.00;;;;;;;12.71;82.01;99585.19;5081580;28;20147;-53
2022/10/06 11:31:50;;;;;;;9.98;6.07;;;;;;;12.69;82.51;99580.94;5057281;28;20044;-48
2022/10/06 11:34:16;;;;;;;11.50;5.32;;;;;;;12.72;82.75;99583.38;5077215;28;20056;-50
2022/10/06 11:36:47;;;;;;;10.90;6.60;;;;;;;12.75;82.65;99588.50;5059291;28;20706;-50
2022/10/06 11:39:21;;;;;;;11.00;6.28;;;;;;;12.85;82.74;99581.09;5068179;28;20507;-52
2022/10/06 11:42:27;;;;;;;10.50;5.80;;;;;;;12.89;82.60;99580.88;5064505;28;20102;-48
2022/10/06 11:45:25;;;;;;;19.38;6.78;;;;;;;12.90;82.52;99571.28;5065932;28;20196;-52
2022/10/06 11:47:51;;;;;;;7.47;5.38;;;;;;;12.81;82.53;99575.19;5046382;28;20036;-51
2022/10/06 11:50:54;;;;;;;10.45;6.28;;;;;;;12.82;83.05;99563.84;5066191;28;20496;-49
2022/10/06 11:53:36;;;;;;;11.15;5.72;;;;;;;12.81;83.03;99563.88;5054874;28;20052;-50
2022/10/06 11:56:17;;;;;;;9.48;5.93;;;;;;;12.84;83.10;99554.16;5067312;28;20078;-51
2022/10/06 11:58:55;;;;;;;10.68;6.20;;;;;;;12.93;82.98;99558.09;5082309;28;20042;-50
2022/10/06 12:01:31;;;;;;;13.25;6.70;;;;;;;12.97;82.75;99552.69;5066745;28;20047;-50
2022/10/06 12:04:04;;;;;;;12.43;6.43;;;;;;;12.97;82.62;99557.06;5066206;28;20048;-52
2022/10/06 12:06:51;;;;;;;16.77;6.10;;;;;;;13.02;82.71;99555.94;5062654;28;20427;-49
2022/10/06 12:09:27;;;;;;;11.68;5.78;;;;;;;13.07;82.31;99558.31;5064605;28;20144;-49